Westport, Connecticut
Current Conditions -  °F | °C
As of 2:52 AM on Sunday 21 Dec 2014 (Local Time) from KBDR Reporting Station
Overcast Overcast  
Wind Chill: 26°   Ceiling: 2300
Heat Index: 32°   Visibility: 7mi
Dew Point: 27°   Wind: 6mph
Humidity: 82%   Direction: 10°N
Pressure: 30.27"   Gusts: NA
Location:  41.14°N, 73.36°W
Report Text: KBDR 210752Z AUTO 01005KT 7SM OVC023 00/M03 A3027 RMK AO2 SLP251 T00001028
Loading
Personal Weather Stations






























Interactive Weather Map New forecast layout! Learn more

10-Day Weather Forecast

Advertisements
Track Severe Weather on mobile